New York, NY

2:06 AM EDT on September 05, 2015 (GMT -0400)
Marcus Garvey Park | | Change Station
CLOSE
Current Station
Personal Weather Station
Location: New York, NY
Elevation: 36 ft
Nearby Weather Stations

Elev 36 ft 40.80 °N, 73.94 °W | Updated 31 seconds ago

Clear
Clear
69.6 °F
Feels Like 69.6 °F
N
8.9
Wind Variable Wind from East
Gusts 12.3 mph

Today
High -- | Low -- °F
--% Chance of Precip.
Yesterday
High -- | Low -- °F
Precip. -- in
6:26 AM 7:21 PM
Waning Gibbous, 52% visible
Pressure 30.22 in
Visibility 10.0 miles
Clouds Few 1800 ft
Dew Point 50 °F
Humidity 49%
Rainfall 0.00 in
Snow Depth Not available.
UV 0.0 out of 12
Pollen 9.00 out of 12
Air Quality Not available.
Flu Activity Not available.
METAR KNYC 050551Z AUTO VRB04KT 10SM FEW018 22/16 A3025 RMK AO2 SLP234 T02170161 10261 20217 51008 $
Pressure 30.22 in
Visibility 10.0 miles
Clouds Few 1800 ft
Dew Point 50 °F
Humidity 49%
Rainfall 0.00 in
Snow Depth Not available.
UV 0.0 out of 12
Pollen 9.00 out of 12
Air Quality Not available.
Flu Activity Not available.
METAR KNYC 050551Z AUTO VRB04KT 10SM FEW018 22/16 A3025 RMK AO2 SLP234 T02170161 10261 20217 51008 $

10-Day Weather Forecast

×

Almanac

Astronomy

Sep. 05, 2015 Rise Set
Actual Time
Civil Twilight
Nautical Twilight
Astronomical Twilight
Moon
Length of Visible Light
Length of Day
Tomorrow will be .
, % of the Moon is Illuminated

Today's Extremes

State Highs State Lows

Community

WunderPhotos

Upload Photos

1,852,431 photos uploaded!

WunderBlogs® & News

Nearby

Air Quality

  Air Quality AQ Index Pollutant
Not available.

Snow Depth

Station Depth Elevation

Earthquake Activity

City Distance Mag. Time & Date
Minimum magnitude displayed is 2.5.

Coastal Water Temperatures

Place Temperature

Stations

Nearby Weather Stations

Station Location Temp. Windchill Dew Point Humidity Wind Precip. Elev Updated Type